sensor_id;sensor_type;location;lat;lon;timestamp;pressure;altitude;pressure_sealevel;temperature;humidity
77431;BME280;66498;48.564;19.272;2023-06-04T00:00:29;97920.09;;;9.68;68.71
77431;BME280;66498;48.564;19.272;2023-06-04T00:02:54;97925.78;;;9.59;69.03
77431;BME280;66498;48.564;19.272;2023-06-04T00:05:20;97916.47;;;9.69;68.41
77431;BME280;66498;48.564;19.272;2023-06-04T00:07:46;97910.22;;;9.57;68.59
77431;BME280;66498;48.564;19.272;2023-06-04T00:10:12;97908.84;;;9.55;67.36
77431;BME280;66498;48.564;19.272;2023-06-04T00:12:37;97910.44;;;9.69;67.19
77431;BME280;66498;48.564;19.272;2023-06-04T00:15:03;97903.50;;;9.81;66.06
77431;BME280;66498;48.564;19.272;2023-06-04T00:17:28;97909.97;;;9.85;65.46
77431;BME280;66498;48.564;19.272;2023-06-04T00:19:54;97905.34;;;9.74;66.12
77431;BME280;66498;48.564;19.272;2023-06-04T00:22:19;97905.16;;;9.82;66.15
77431;BME280;66498;48.564;19.272;2023-06-04T00:24:45;97903.00;;;9.53;66.86
77431;BME280;66498;48.564;19.272;2023-06-04T00:27:10;97902.78;;;9.54;67.15
77431;BME280;66498;48.564;19.272;2023-06-04T00:29:36;97906.47;;;9.20;68.20
77431;BME280;66498;48.564;19.272;2023-06-04T00:32:02;97903.44;;;9.30;68.62
77431;BME280;66498;48.564;19.272;2023-06-04T00:34:28;97903.66;;;9.15;68.30
77431;BME280;66498;48.564;19.272;2023-06-04T00:36:53;97895.19;;;9.13;68.70
77431;BME280;66498;48.564;19.272;2023-06-04T00:39:19;97903.66;;;9.15;68.37
77431;BME280;66498;48.564;19.272;2023-06-04T00:41:44;97896.97;;;9.39;67.91
77431;BME280;66498;48.564;19.272;2023-06-04T00:44:10;97898.47;;;9.86;66.51
77431;BME280;66498;48.564;19.272;2023-06-04T00:46:36;97902.84;;;9.99;65.54
77431;BME280;66498;48.564;19.272;2023-06-04T00:49:02;97893.38;;;9.98;65.78
77431;BME280;66498;48.564;19.272;2023-06-04T00:51:29;97898.06;;;9.89;66.27
77431;BME280;66498;48.564;19.272;2023-06-04T00:53:55;97897.16;;;9.51;67.44
77431;BME280;66498;48.564;19.272;2023-06-04T00:56:21;97902.25;;;9.26;67.84
77431;BME280;66498;48.564;19.272;2023-06-04T00:58:46;97903.44;;;9.10;67.95
77431;BME280;66498;48.564;19.272;2023-06-04T01:03:43;97897.81;;;9.06;68.81
77431;BME280;66498;48.564;19.272;2023-06-04T01:08:57;97903.25;;;8.65;70.41
77431;BME280;66498;48.564;19.272;2023-06-04T01:11:36;97900.13;;;8.35;72.20
77431;BME280;66498;48.564;19.272;2023-06-04T01:14:03;97898.59;;;8.53;70.85
77431;BME280;66498;48.564;19.272;2023-06-04T01:16:35;97896.53;;;8.36;70.50
77431;BME280;66498;48.564;19.272;2023-06-04T01:19:04;97890.03;;;8.18;71.85
77431;BME280;66498;48.564;19.272;2023-06-04T01:21:34;97888.78;;;8.07;72.93
77431;BME280;66498;48.564;19.272;2023-06-04T01:24:04;97893.41;;;7.99;73.03
77431;BME280;66498;48.564;19.272;2023-06-04T01:26:32;97885.91;;;7.82;74.12
77431;BME280;66498;48.564;19.272;2023-06-04T01:28:58;97890.81;;;7.57;75.43
77431;BME280;66498;48.564;19.272;2023-06-04T01:31:24;97881.38;;;7.63;75.46
77431;BME280;66498;48.564;19.272;2023-06-04T01:33:55;97886.66;;;7.76;74.82
77431;BME280;66498;48.564;19.272;2023-06-04T01:36:23;97897.00;;;7.98;74.15
77431;BME280;66498;48.564;19.272;2023-06-04T01:38:48;97890.59;;;8.00;73.49
77431;BME280;66498;48.564;19.272;2023-06-04T01:41:14;97891.84;;;8.18;73.10
77431;BME280;66498;48.564;19.272;2023-06-04T01:43:39;97895.13;;;8.33;72.60
77431;BME280;66498;48.564;19.272;2023-06-04T01:46:05;97889.34;;;8.58;71.57
77431;BME280;66498;48.564;19.272;2023-06-04T01:48:30;97890.38;;;8.76;70.56
77431;BME280;66498;48.564;19.272;2023-06-04T01:50:57;97889.50;;;8.36;72.77
77431;BME280;66498;48.564;19.272;2023-06-04T01:53:23;97886.03;;;8.16;74.59
77431;BME280;66498;48.564;19.272;2023-06-04T01:55:48;97889.25;;;8.24;73.10
77431;BME280;66498;48.564;19.272;2023-06-04T01:58:15;97887.13;;;8.61;71.76
77431;BME280;66498;48.564;19.272;2023-06-04T02:00:43;97886.81;;;8.10;73.81
77431;BME280;66498;48.564;19.272;2023-06-04T02:03:09;97891.34;;;7.94;74.41
77431;BME280;66498;48.564;19.272;2023-06-04T02:05:36;97896.75;;;8.41;72.12
77431;BME280;66498;48.564;19.272;2023-06-04T02:08:02;97903.69;;;8.14;72.42
77431;BME280;66498;48.564;19.272;2023-06-04T02:10:30;97893.19;;;8.00;72.86
77431;BME280;66498;48.564;19.272;2023-06-04T02:13:00;97899.41;;;8.47;71.22
77431;BME280;66498;48.564;19.272;2023-06-04T02:15:27;97907.94;;;8.21;72.59
77431;BME280;66498;48.564;19.272;2023-06-04T02:17:56;97898.41;;;7.94;73.03
77431;BME280;66498;48.564;19.272;2023-06-04T02:20:27;97896.28;;;8.24;72.65
77431;BME280;66498;48.564;19.272;2023-06-04T02:22:56;97895.75;;;8.42;71.53
77431;BME280;66498;48.564;19.272;2023-06-04T02:25:23;97904.34;;;8.22;72.94
77431;BME280;66498;48.564;19.272;2023-06-04T02:27:48;97905.41;;;8.41;72.51
77431;BME280;66498;48.564;19.272;2023-06-04T02:30:14;97898.28;;;8.22;72.99
77431;BME280;66498;48.564;19.272;2023-06-04T02:32:42;97896.31;;;8.37;72.37
77431;BME280;66498;48.564;19.272;2023-06-04T02:35:10;97904.03;;;8.52;71.56
77431;BME280;66498;48.564;19.272;2023-06-04T02:37:35;97900.44;;;8.60;71.06
77431;BME280;66498;48.564;19.272;2023-06-04T02:40:01;97900.63;;;8.65;71.22
77431;BME280;66498;48.564;19.272;2023-06-04T02:42:26;97906.97;;;8.29;72.74
77431;BME280;66498;48.564;19.272;2023-06-04T02:44:52;97900.84;;;8.02;72.67
77431;BME280;66498;48.564;19.272;2023-06-04T02:47:17;97903.28;;;7.62;74.12
77431;BME280;66498;48.564;19.272;2023-06-04T02:49:44;97897.41;;;7.95;73.67
77431;BME280;66498;48.564;19.272;2023-06-04T02:52:11;97898.00;;;7.97;73.07
77431;BME280;66498;48.564;19.272;2023-06-04T02:54:37;97899.13;;;8.22;72.10
77431;BME280;66498;48.564;19.272;2023-06-04T02:57:03;97902.56;;;8.29;71.89
77431;BME280;66498;48.564;19.272;2023-06-04T02:59:28;97902.16;;;8.33;71.78
77431;BME280;66498;48.564;19.272;2023-06-04T03:01:54;97904.56;;;8.34;71.44
77431;BME280;66498;48.564;19.272;2023-06-04T03:04:19;97898.78;;;8.45;70.88
77431;BME280;66498;48.564;19.272;2023-06-04T03:06:45;97903.53;;;8.15;72.58
77431;BME280;66498;48.564;19.272;2023-06-04T03:09:11;97906.03;;;8.50;70.94
77431;BME280;66498;48.564;19.272;2023-06-04T03:11:37;97914.41;;;8.32;71.56
77431;BME280;66498;48.564;19.272;2023-06-04T03:14:03;97909.19;;;8.25;71.84
77431;BME280;66498;48.564;19.272;2023-06-04T03:16:28;97912.34;;;8.14;71.76
77431;BME280;66498;48.564;19.272;2023-06-04T03:18:54;97912.66;;;7.85;73.34
77431;BME280;66498;48.564;19.272;2023-06-04T03:21:19;97915.66;;;7.81;73.67
77431;BME280;66498;48.564;19.272;2023-06-04T03:23:45;97906.38;;;7.79;74.24
77431;BME280;66498;48.564;19.272;2023-06-04T03:26:10;97914.06;;;7.87;73.84
77431;BME280;66498;48.564;19.272;2023-06-04T03:28:38;97912.97;;;7.68;74.27
77431;BME280;66498;48.564;19.272;2023-06-04T03:31:03;97920.06;;;7.88;73.93
77431;BME280;66498;48.564;19.272;2023-06-04T03:33:29;97923.53;;;7.88;73.55
77431;BME280;66498;48.564;19.272;2023-06-04T03:35:54;97923.69;;;7.45;75.20
77431;BME280;66498;48.564;19.272;2023-06-04T03:38:24;97919.97;;;8.02;73.60
77431;BME280;66498;48.564;19.272;2023-06-04T03:40:49;97926.16;;;8.43;71.95
77431;BME280;66498;48.564;19.272;2023-06-04T03:43:15;97932.06;;;8.17;72.96
77431;BME280;66498;48.564;19.272;2023-06-04T03:45:41;97926.56;;;7.92;74.41
77431;BME280;66498;48.564;19.272;2023-06-04T03:48:07;97928.78;;;8.01;74.15
77431;BME280;66498;48.564;19.272;2023-06-04T03:50:32;97930.81;;;7.99;73.89
77431;BME280;66498;48.564;19.272;2023-06-04T03:52:58;97934.88;;;8.09;74.04
77431;BME280;66498;48.564;19.272;2023-06-04T03:55:23;97932.41;;;8.00;74.17
77431;BME280;66498;48.564;19.272;2023-06-04T03:57:49;97945.34;;;8.09;74.43
77431;BME280;66498;48.564;19.272;2023-06-04T04:00:15;97942.34;;;8.25;73.44
77431;BME280;66498;48.564;19.272;2023-06-04T04:02:41;97940.44;;;8.40;72.81
77431;BME280;66498;48.564;19.272;2023-06-04T04:05:07;97937.50;;;8.70;71.42
77431;BME280;66498;48.564;19.272;2023-06-04T04:07:33;97943.31;;;8.72;71.56
77431;BME280;66498;48.564;19.272;2023-06-04T04:09:58;97946.72;;;8.72;71.83
77431;BME280;66498;48.564;19.272;2023-06-04T04:12:24;97949.03;;;8.34;72.59
77431;BME280;66498;48.564;19.272;2023-06-04T04:14:49;97955.13;;;8.48;72.43
77431;BME280;66498;48.564;19.272;2023-06-04T04:17:15;97949.50;;;8.51;73.03
77431;BME280;66498;48.564;19.272;2023-06-04T04:19:40;97944.53;;;8.63;72.10
77431;BME280;66498;48.564;19.272;2023-06-04T04:22:06;97947.78;;;8.91;71.84
77431;BME280;66498;48.564;19.272;2023-06-04T04:24:31;97949.78;;;8.89;71.11
77431;BME280;66498;48.564;19.272;2023-06-04T04:26:59;97946.56;;;8.87;71.84
77431;BME280;66498;48.564;19.272;2023-06-04T04:29:25;97943.53;;;9.43;69.50
77431;BME280;66498;48.564;19.272;2023-06-04T04:31:53;97949.94;;;9.61;68.85
77431;BME280;66498;48.564;19.272;2023-06-04T04:34:21;97943.53;;;9.37;70.38
77431;BME280;66498;48.564;19.272;2023-06-04T04:36:49;97960.75;;;9.91;68.67
77431;BME280;66498;48.564;19.272;2023-06-04T04:39:22;97953.16;;;9.69;69.04
77431;BME280;66498;48.564;19.272;2023-06-04T04:41:48;97959.41;;;9.82;68.08
77431;BME280;66498;48.564;19.272;2023-06-04T04:44:14;97956.44;;;9.52;68.49
77431;BME280;66498;48.564;19.272;2023-06-04T04:46:39;97951.53;;;9.88;67.53
77431;BME280;66498;48.564;19.272;2023-06-04T04:49:05;97948.28;;;9.86;67.64
77431;BME280;66498;48.564;19.272;2023-06-04T04:51:30;97949.69;;;9.95;68.06
77431;BME280;66498;48.564;19.272;2023-06-04T04:53:56;97950.38;;;10.29;66.87
77431;BME280;66498;48.564;19.272;2023-06-04T04:56:21;97960.13;;;10.09;67.24
77431;BME280;66498;48.564;19.272;2023-06-04T04:58:48;97952.63;;;10.19;67.08
77431;BME280;66498;48.564;19.272;2023-06-04T05:01:13;97948.69;;;10.41;65.81
77431;BME280;66498;48.564;19.272;2023-06-04T05:03:39;97950.69;;;10.84;64.64
77431;BME280;66498;48.564;19.272;2023-06-04T05:06:04;97949.13;;;10.77;63.90
77431;BME280;66498;48.564;19.272;2023-06-04T05:08:30;97947.16;;;10.97;63.41
77431;BME280;66498;48.564;19.272;2023-06-04T05:10:56;97945.47;;;11.03;62.81
77431;BME280;66498;48.564;19.272;2023-06-04T05:13:21;97943.88;;;11.02;63.37
77431;BME280;66498;48.564;19.272;2023-06-04T05:15:48;97934.34;;;11.32;62.71
77431;BME280;66498;48.564;19.272;2023-06-04T05:18:18;97938.63;;;11.70;61.79
77431;BME280;66498;48.564;19.272;2023-06-04T05:20:46;97941.97;;;11.77;60.80
77431;BME280;66498;48.564;19.272;2023-06-04T05:23:11;97940.41;;;12.13;61.00
77431;BME280;66498;48.564;19.272;2023-06-04T05:25:37;97929.72;;;12.98;57.84
77431;BME280;66498;48.564;19.272;2023-06-04T05:28:03;97937.84;;;13.20;56.48
77431;BME280;66498;48.564;19.272;2023-06-04T05:30:31;97937.31;;;13.30;56.00
77431;BME280;66498;48.564;19.272;2023-06-04T05:32:56;97940.16;;;13.87;55.40
77431;BME280;66498;48.564;19.272;2023-06-04T05:35:22;97946.72;;;13.73;55.62
77431;BME280;66498;48.564;19.272;2023-06-04T05:37:48;97946.53;;;14.15;54.63
77431;BME280;66498;48.564;19.272;2023-06-04T05:40:18;97946.03;;;13.78;55.86
77431;BME280;66498;48.564;19.272;2023-06-04T05:42:44;97947.97;;;13.94;55.54
77431;BME280;66498;48.564;19.272;2023-06-04T05:45:09;97949.75;;;14.05;54.70
77431;BME280;66498;48.564;19.272;2023-06-04T05:47:35;97945.06;;;14.76;52.68
77431;BME280;66498;48.564;19.272;2023-06-04T05:50:02;97944.22;;;14.59;54.03
77431;BME280;66498;48.564;19.272;2023-06-04T05:52:28;97939.22;;;14.91;52.00
77431;BME280;66498;48.564;19.272;2023-06-04T05:54:53;97945.56;;;15.07;52.03
77431;BME280;66498;48.564;19.272;2023-06-04T05:57:19;97949.50;;;15.21;51.36
77431;BME280;66498;48.564;19.272;2023-06-04T05:59:46;97947.38;;;14.44;52.26
77431;BME280;66498;48.564;19.272;2023-06-04T06:02:11;97947.31;;;15.18;49.94
77431;BME280;66498;48.564;19.272;2023-06-04T06:04:37;97949.00;;;15.58;48.87
77431;BME280;66498;48.564;19.272;2023-06-04T06:07:03;97954.84;;;15.60;49.21
77431;BME280;66498;48.564;19.272;2023-06-04T06:09:28;97944.97;;;15.55;49.40
77431;BME280;66498;48.564;19.272;2023-06-04T06:11:54;97954.94;;;15.48;49.15
77431;BME280;66498;48.564;19.272;2023-06-04T06:14:19;97955.25;;;16.07;47.85
77431;BME280;66498;48.564;19.272;2023-06-04T06:16:45;97947.50;;;16.50;47.09
77431;BME280;66498;48.564;19.272;2023-06-04T06:19:12;97946.25;;;16.79;47.31
77431;BME280;66498;48.564;19.272;2023-06-04T06:21:37;97938.84;;;16.60;47.22
77431;BME280;66498;48.564;19.272;2023-06-04T06:24:03;97937.25;;;16.31;47.10
77431;BME280;66498;48.564;19.272;2023-06-04T06:26:28;97935.44;;;16.64;47.52
77431;BME280;66498;48.564;19.272;2023-06-04T06:28:56;97938.06;;;16.59;46.85
77431;BME280;66498;48.564;19.272;2023-06-04T06:31:22;97943.16;;;16.66;48.32
77431;BME280;66498;48.564;19.272;2023-06-04T06:33:48;97941.78;;;16.58;46.30
77431;BME280;66498;48.564;19.272;2023-06-04T06:36:13;97938.47;;;17.00;45.19
77431;BME280;66498;48.564;19.272;2023-06-04T06:38:39;97942.69;;;16.96;46.22
77431;BME280;66498;48.564;19.272;2023-06-04T06:41:05;97932.81;;;17.66;44.21
77431;BME280;66498;48.564;19.272;2023-06-04T06:43:31;97935.69;;;17.54;45.25
77431;BME280;66498;48.564;19.272;2023-06-04T06:45:58;97932.75;;;17.50;44.54
77431;BME280;66498;48.564;19.272;2023-06-04T06:48:23;97938.03;;;17.88;43.55
77431;BME280;66498;48.564;19.272;2023-06-04T06:50:49;97940.44;;;18.00;42.42
77431;BME280;66498;48.564;19.272;2023-06-04T06:53:15;97932.53;;;18.10;42.13
77431;BME280;66498;48.564;19.272;2023-06-04T06:55:40;97934.34;;;18.93;41.26
77431;BME280;66498;48.564;19.272;2023-06-04T06:58:06;97943.31;;;18.56;44.03
77431;BME280;66498;48.564;19.272;2023-06-04T07:00:31;97940.88;;;18.44;42.66
77431;BME280;66498;48.564;19.272;2023-06-04T07:02:57;97935.84;;;18.53;41.48
77431;BME280;66498;48.564;19.272;2023-06-04T07:05:22;97940.31;;;18.32;43.03
77431;BME280;66498;48.564;19.272;2023-06-04T07:07:48;97942.06;;;18.99;41.21
77431;BME280;66498;48.564;19.272;2023-06-04T07:10:13;97931.69;;;19.33;39.42
77431;BME280;66498;48.564;19.272;2023-06-04T07:12:40;97941.28;;;18.99;41.02
77431;BME280;66498;48.564;19.272;2023-06-04T07:15:06;97939.66;;;18.87;42.02
77431;BME280;66498;48.564;19.272;2023-06-04T07:17:33;97933.97;;;19.86;39.92
77431;BME280;66498;48.564;19.272;2023-06-04T07:19:59;97937.88;;;20.14;39.32
77431;BME280;66498;48.564;19.272;2023-06-04T07:22:25;97932.25;;;20.21;39.27
77431;BME280;66498;48.564;19.272;2023-06-04T07:24:51;97940.13;;;19.76;40.52
77431;BME280;66498;48.564;19.272;2023-06-04T07:27:17;97935.59;;;19.82;38.71
77431;BME280;66498;48.564;19.272;2023-06-04T07:29:43;97935.66;;;19.67;39.44
77431;BME280;66498;48.564;19.272;2023-06-04T07:32:09;97934.31;;;20.34;37.09
77431;BME280;66498;48.564;19.272;2023-06-04T07:34:35;97931.41;;;20.30;36.97
77431;BME280;66498;48.564;19.272;2023-06-04T07:37:02;97934.81;;;20.41;32.96
77431;BME280;66498;48.564;19.272;2023-06-04T07:39:28;97927.09;;;20.40;35.40
77431;BME280;66498;48.564;19.272;2023-06-04T07:41:54;97929.38;;;20.07;36.99
77431;BME280;66498;48.564;19.272;2023-06-04T07:44:20;97921.59;;;20.21;36.74
77431;BME280;66498;48.564;19.272;2023-06-04T07:46:46;97923.63;;;19.79;37.51
77431;BME280;66498;48.564;19.272;2023-06-04T07:49:11;97923.84;;;20.53;36.12
77431;BME280;66498;48.564;19.272;2023-06-04T07:51:37;97923.41;;;20.36;38.21
77431;BME280;66498;48.564;19.272;2023-06-04T07:54:03;97914.00;;;20.43;37.39
77431;BME280;66498;48.564;19.272;2023-06-04T07:56:28;97910.00;;;20.51;36.74
77431;BME280;66498;48.564;19.272;2023-06-04T07:58:54;97916.38;;;20.50;36.15
77431;BME280;66498;48.564;19.272;2023-06-04T08:01:20;97910.94;;;20.70;36.20
77431;BME280;66498;48.564;19.272;2023-06-04T08:03:47;97907.00;;;20.97;35.49
77431;BME280;66498;48.564;19.272;2023-06-04T08:06:12;97904.72;;;20.80;36.00
77431;BME280;66498;48.564;19.272;2023-06-04T08:08:42;97898.47;;;20.95;36.31
77431;BME280;66498;48.564;19.272;2023-06-04T08:11:11;97896.72;;;21.14;34.07
77431;BME280;66498;48.564;19.272;2023-06-04T08:13:37;97893.06;;;21.05;33.97
77431;BME280;66498;48.564;19.272;2023-06-04T08:16:02;97902.81;;;21.49;34.94
77431;BME280;66498;48.564;19.272;2023-06-04T08:18:28;97912.22;;;21.94;34.50
77431;BME280;66498;48.564;19.272;2023-06-04T08:20:54;97902.94;;;21.34;32.72
77431;BME280;66498;48.564;19.272;2023-06-04T08:23:20;97913.72;;;22.01;34.68
77431;BME280;66498;48.564;19.272;2023-06-04T08:25:45;97914.66;;;21.91;35.05
77431;BME280;66498;48.564;19.272;2023-06-04T08:28:13;97918.50;;;22.28;34.63
77431;BME280;66498;48.564;19.272;2023-06-04T08:30:39;97911.00;;;22.06;33.89
77431;BME280;66498;48.564;19.272;2023-06-04T08:33:04;97909.47;;;22.24;32.57
77431;BME280;66498;48.564;19.272;2023-06-04T08:35:30;97919.16;;;22.19;29.80
77431;BME280;66498;48.564;19.272;2023-06-04T08:37:55;97915.19;;;22.36;30.62
77431;BME280;66498;48.564;19.272;2023-06-04T08:40:21;97915.69;;;22.57;32.76
77431;BME280;66498;48.564;19.272;2023-06-04T08:42:48;97919.03;;;22.49;33.22
77431;BME280;66498;48.564;19.272;2023-06-04T08:45:14;97922.78;;;22.29;32.66
77431;BME280;66498;48.564;19.272;2023-06-04T08:47:48;97921.59;;;22.35;33.51
77431;BME280;66498;48.564;19.272;2023-06-04T08:50:18;97924.78;;;22.75;33.52
77431;BME280;66498;48.564;19.272;2023-06-04T08:52:43;97918.69;;;22.88;31.14
77431;BME280;66498;48.564;19.272;2023-06-04T08:55:10;97915.97;;;22.55;29.06
77431;BME280;66498;48.564;19.272;2023-06-04T08:57:38;97913.06;;;23.08;30.41
77431;BME280;66498;48.564;19.272;2023-06-04T09:00:05;97916.50;;;21.90;31.09
77431;BME280;66498;48.564;19.272;2023-06-04T09:02:35;97911.00;;;22.06;33.55
77431;BME280;66498;48.564;19.272;2023-06-04T09:05:01;97910.22;;;21.57;32.61
77431;BME280;66498;48.564;19.272;2023-06-04T09:07:28;97910.34;;;21.71;33.27
77431;BME280;66498;48.564;19.272;2023-06-04T09:09:55;97909.75;;;22.60;31.56
77431;BME280;66498;48.564;19.272;2023-06-04T09:12:24;97904.84;;;22.48;31.91
77431;BME280;66498;48.564;19.272;2023-06-04T09:14:50;97902.63;;;22.12;32.14
77431;BME280;66498;48.564;19.272;2023-06-04T09:17:25;97905.81;;;22.38;32.41
77431;BME280;66498;48.564;19.272;2023-06-04T09:19:51;97903.34;;;23.12;30.22
77431;BME280;66498;48.564;19.272;2023-06-04T09:22:17;97905.44;;;23.76;29.79
77431;BME280;66498;48.564;19.272;2023-06-04T09:24:44;97910.31;;;23.13;29.26
77431;BME280;66498;48.564;19.272;2023-06-04T09:27:19;97907.09;;;22.60;29.42
77431;BME280;66498;48.564;19.272;2023-06-04T09:29:55;97911.22;;;22.52;29.88
77431;BME280;66498;48.564;19.272;2023-06-04T09:32:29;97908.56;;;22.52;32.86
77431;BME280;66498;48.564;19.272;2023-06-04T09:35:07;97905.56;;;23.24;32.30
77431;BME280;66498;48.564;19.272;2023-06-04T09:37:34;97902.16;;;23.19;31.95
77431;BME280;66498;48.564;19.272;2023-06-04T09:39:59;97899.47;;;23.93;29.80
77431;BME280;66498;48.564;19.272;2023-06-04T09:42:26;97902.31;;;24.24;29.46
77431;BME280;66498;48.564;19.272;2023-06-04T09:44:51;97903.91;;;22.77;30.14
77431;BME280;66498;48.564;19.272;2023-06-04T09:47:17;97906.63;;;22.90;31.74
77431;BME280;66498;48.564;19.272;2023-06-04T09:49:43;97903.72;;;23.66;32.38
77431;BME280;66498;48.564;19.272;2023-06-04T09:52:10;97903.81;;;23.47;32.02
77431;BME280;66498;48.564;19.272;2023-06-04T09:54:40;97905.06;;;23.82;31.49
77431;BME280;66498;48.564;19.272;2023-06-04T09:57:17;97909.13;;;23.80;30.02
77431;BME280;66498;48.564;19.272;2023-06-04T09:59:49;97913.47;;;23.16;32.23
77431;BME280;66498;48.564;19.272;2023-06-04T10:02:24;97910.50;;;23.17;30.67
77431;BME280;66498;48.564;19.272;2023-06-04T10:04:55;97905.78;;;23.42;29.79
77431;BME280;66498;48.564;19.272;2023-06-04T10:07:26;97907.63;;;23.13;31.05
77431;BME280;66498;48.564;19.272;2023-06-04T10:09:52;97913.69;;;23.79;30.65
77431;BME280;66498;48.564;19.272;2023-06-04T10:12:24;97904.41;;;23.58;31.93
77431;BME280;66498;48.564;19.272;2023-06-04T10:14:57;97902.28;;;23.27;33.31
77431;BME280;66498;48.564;19.272;2023-06-04T10:17:25;97908.31;;;22.86;33.93
77431;BME280;66498;48.564;19.272;2023-06-04T10:19:53;97902.06;;;23.70;33.50
77431;BME280;66498;48.564;19.272;2023-06-04T10:22:21;97906.50;;;24.16;32.77
77431;BME280;66498;48.564;19.272;2023-06-04T10:24:47;97905.28;;;24.50;30.74
77431;BME280;66498;48.564;19.272;2023-06-04T10:27:12;97904.78;;;25.38;31.45
77431;BME280;66498;48.564;19.272;2023-06-04T10:29:39;97908.78;;;25.49;29.60
77431;BME280;66498;48.564;19.272;2023-06-04T10:32:05;97901.34;;;25.46;31.39
77431;BME280;66498;48.564;19.272;2023-06-04T10:34:31;97902.50;;;25.22;31.47
77431;BME280;66498;48.564;19.272;2023-06-04T10:36:56;97912.50;;;23.72;32.19
77431;BME280;66498;48.564;19.272;2023-06-04T10:39:30;97900.13;;;23.43;32.60
77431;BME280;66498;48.564;19.272;2023-06-04T10:42:00;97907.06;;;23.30;33.37
77431;BME280;66498;48.564;19.272;2023-06-04T10:44:26;97901.38;;;22.66;33.54
77431;BME280;66498;48.564;19.272;2023-06-04T10:46:52;97904.91;;;23.00;34.04
77431;BME280;66498;48.564;19.272;2023-06-04T10:49:26;97907.94;;;23.26;33.90
77431;BME280;66498;48.564;19.272;2023-06-04T10:51:53;97905.47;;;23.29;34.25
77431;BME280;66498;48.564;19.272;2023-06-04T10:54:25;97900.59;;;23.92;33.80
77431;BME280;66498;48.564;19.272;2023-06-04T10:56:51;97918.78;;;24.31;33.44
77431;BME280;66498;48.564;19.272;2023-06-04T10:59:18;97902.88;;;23.98;32.75
77431;BME280;66498;48.564;19.272;2023-06-04T11:01:44;97903.56;;;23.76;33.87
77431;BME280;66498;48.564;19.272;2023-06-04T11:04:22;97898.09;;;23.81;32.64
77431;BME280;66498;48.564;19.272;2023-06-04T11:07:03;97902.56;;;23.86;34.10
77431;BME280;66498;48.564;19.272;2023-06-04T11:09:30;97899.66;;;24.10;33.04
77431;BME280;66498;48.564;19.272;2023-06-04T11:11:59;97906.44;;;24.58;32.36
77431;BME280;66498;48.564;19.272;2023-06-04T11:14:25;97894.00;;;24.84;32.62
77431;BME280;66498;48.564;19.272;2023-06-04T11:16:51;97903.47;;;24.82;32.23
77431;BME280;66498;48.564;19.272;2023-06-04T11:19:17;97898.56;;;24.61;31.58
77431;BME280;66498;48.564;19.272;2023-06-04T11:21:43;97903.06;;;24.38;32.65
77431;BME280;66498;48.564;19.272;2023-06-04T11:24:11;97900.34;;;23.60;32.54
77431;BME280;66498;48.564;19.272;2023-06-04T11:26:37;97911.47;;;23.54;33.92
77431;BME280;66498;48.564;19.272;2023-06-04T11:29:07;97911.75;;;23.06;34.15
77431;BME280;66498;48.564;19.272;2023-06-04T11:31:46;97912.88;;;23.19;34.75
77431;BME280;66498;48.564;19.272;2023-06-04T11:34:29;97912.34;;;22.84;34.81
77431;BME280;66498;48.564;19.272;2023-06-04T11:36:55;97915.38;;;22.77;34.52
77431;BME280;66498;48.564;19.272;2023-06-04T11:39:22;97924.03;;;22.93;34.90
77431;BME280;66498;48.564;19.272;2023-06-04T11:41:50;97922.16;;;22.88;35.27
77431;BME280;66498;48.564;19.272;2023-06-04T11:44:19;97931.97;;;22.98;34.33
77431;BME280;66498;48.564;19.272;2023-06-04T11:46:45;97925.47;;;22.66;34.94
77431;BME280;66498;48.564;19.272;2023-06-04T11:49:18;97924.31;;;22.73;35.51
77431;BME280;66498;48.564;19.272;2023-06-04T11:51:48;97925.78;;;22.79;36.02
77431;BME280;66498;48.564;19.272;2023-06-04T11:54:15;97929.19;;;22.84;35.91
77431;BME280;66498;48.564;19.272;2023-06-04T11:56:42;97930.28;;;22.83;35.35
77431;BME280;66498;48.564;19.272;2023-06-04T11:59:12;97934.94;;;22.59;35.94
77431;BME280;66498;48.564;19.272;2023-06-04T12:01:43;97929.41;;;22.88;35.51
77431;BME280;66498;48.564;19.272;2023-06-04T12:04:18;97930.16;;;22.94;35.61
77431;BME280;66498;48.564;19.272;2023-06-04T12:06:55;97932.72;;;23.18;35.22
77431;BME280;66498;48.564;19.272;2023-06-04T12:09:27;97928.53;;;23.58;34.96
77431;BME280;66498;48.564;19.272;2023-06-04T12:12:03;97932.13;;;24.36;34.49
77431;BME280;66498;48.564;19.272;2023-06-04T12:14:30;97923.69;;;24.43;32.10
77431;BME280;66498;48.564;19.272;2023-06-04T12:16:57;97920.72;;;24.17;33.52
77431;BME280;66498;48.564;19.272;2023-06-04T12:19:23;97925.19;;;24.07;32.35
77431;BME280;66498;48.564;19.272;2023-06-04T12:22:04;97919.34;;;24.55;32.85
77431;BME280;66498;48.564;19.272;2023-06-04T12:24:32;97914.63;;;24.52;31.93
77431;BME280;66498;48.564;19.272;2023-06-04T12:27:07;97923.09;;;24.46;32.80
77431;BME280;66498;48.564;19.272;2023-06-04T12:29:34;97925.06;;;24.26;33.66
77431;BME280;66498;48.564;19.272;2023-06-04T12:32:09;97931.34;;;23.80;33.95
77431;BME280;66498;48.564;19.272;2023-06-04T12:34:39;97926.56;;;23.77;33.04
77431;BME280;66498;48.564;19.272;2023-06-04T12:37:05;97937.41;;;23.72;33.02
77431;BME280;66498;48.564;19.272;2023-06-04T12:39:35;97938.69;;;22.58;34.36
77431;BME280;66498;48.564;19.272;2023-06-04T12:42:07;97941.78;;;23.03;34.96
77431;BME280;66498;48.564;19.272;2023-06-04T12:44:37;97932.75;;;22.61;35.61
77431;BME280;66498;48.564;19.272;2023-06-04T12:47:03;97942.94;;;22.40;36.52
77431;BME280;66498;48.564;19.272;2023-06-04T12:49:29;97941.44;;;22.53;35.37
77431;BME280;66498;48.564;19.272;2023-06-04T12:51:55;97937.75;;;22.86;35.85
77431;BME280;66498;48.564;19.272;2023-06-04T12:54:21;97938.31;;;23.02;35.09
77431;BME280;66498;48.564;19.272;2023-06-04T12:56:46;97944.25;;;22.42;35.90